Terminal Aerodrome Forecast
Issued by NWS

Home | Current Version | Previous Version | Text Only | Print | Product List | Glossary On
Versions: 1 2 3 4 5 6 7 8 9 10 11 12 13 14 15
000
FTUS43 KGRB 171724 AAA
TAFRHI
TAF AMD
KRHI 171724Z 1717/1818 09008G15KT P6SM BKN100
     FM180000 10007KT P6SM FEW100 SCT250
     FM180400 10006KT P6SM BKN250 WS012/13035KT
     FM180900 11004KT P6SM BKN250 WS012/16030KT
     FM181400 14009G14KT P6SM BKN250=

USA.gov is the U.S. government's official web portal to all federal, state and local government web resources and services.